createdAt,value
2023-03-02T00:02:03.538Z,55.13
2023-03-02T00:04:59.897Z,55.25
2023-03-02T00:07:32.420Z,56.20
2023-03-02T00:09:59.328Z,48.65
2023-03-02T00:12:31.338Z,59.42
2023-03-02T00:14:57.939Z,55.67
2023-03-02T00:17:27.946Z,53.33
2023-03-02T00:19:55.157Z,51.25
2023-03-02T00:22:21.704Z,56.10
2023-03-02T00:24:48.294Z,53.60
2023-03-02T00:27:14.858Z,55.15
2023-03-02T00:29:42.220Z,62.63
2023-03-02T00:32:09.171Z,52.55
2023-03-02T00:34:35.758Z,52.67
2023-03-02T00:37:02.355Z,59.75
2023-03-02T00:39:28.911Z,59.05
2023-03-02T00:41:55.465Z,54.88
2023-03-02T00:44:22.057Z,54.00
2023-03-02T00:46:48.824Z,59.58
2023-03-02T00:49:15.411Z,58.60
2023-03-02T00:51:41.965Z,59.42
2023-03-02T00:54:08.625Z,65.65
2023-03-02T00:56:35.353Z,57.08
2023-03-02T00:59:11.178Z,52.65
2023-03-02T01:01:38.166Z,67.70
2023-03-02T01:04:05.395Z,59.28
2023-03-02T01:06:32.427Z,62.00
2023-03-02T01:08:59.278Z,58.50
2023-03-02T01:11:25.840Z,54.88
2023-03-02T01:13:52.495Z,60.63
2023-03-02T01:16:19.132Z,58.65
2023-03-02T01:18:45.788Z,54.55
2023-03-02T01:21:14.828Z,64.40
2023-03-02T01:23:41.621Z,66.20
2023-03-02T01:26:08.460Z,72.85
2023-03-02T01:28:35.031Z,54.42
2023-03-02T01:31:03.307Z,63.20
2023-03-02T01:33:30.670Z,58.17
2023-03-02T01:35:57.350Z,61.67
2023-03-02T01:38:24.018Z,55.80
2023-03-02T01:40:50.734Z,59.22
2023-03-02T01:43:17.590Z,57.00
2023-03-02T01:45:54.428Z,61.10
2023-03-02T01:48:50.217Z,60.17
2023-03-02T01:51:25.399Z,62.00
2023-03-02T01:53:58.654Z,57.60
2023-03-02T01:56:32.491Z,61.90
2023-03-02T01:59:03.513Z,55.00
2023-03-02T02:01:34.512Z,66.68
2023-03-02T02:04:01.731Z,60.28
2023-03-02T02:06:37.849Z,59.78
2023-03-02T02:09:09.230Z,55.50
2023-03-02T02:11:36.366Z,58.88
2023-03-02T02:14:03.551Z,53.75
2023-03-02T02:16:33.828Z,58.38
2023-03-02T02:19:01.829Z,63.40
2023-03-02T02:21:29.205Z,53.47
2023-03-02T02:24:26.092Z,51.58
2023-03-02T02:26:54.461Z,64.75
2023-03-02T02:29:26.128Z,54.45
2023-03-02T02:32:10.659Z,56.53
2023-03-02T02:34:46.063Z,56.45
2023-03-02T02:37:20.030Z,57.78
2023-03-02T02:39:49.060Z,60.80
2023-03-02T02:42:21.544Z,58.55
2023-03-02T02:44:48.439Z,56.88
2023-03-02T02:47:18.809Z,59.08
2023-03-02T02:49:47.951Z,60.20
2023-03-02T02:52:17.621Z,51.85
2023-03-02T02:54:47.515Z,58.20
2023-03-02T02:57:17.910Z,55.15
2023-03-02T02:59:48.106Z,51.90
2023-03-02T03:02:20.682Z,57.28
2023-03-02T03:04:47.859Z,53.33
2023-03-02T03:07:20.804Z,52.90
2023-03-02T03:09:58.353Z,53.92
2023-03-02T03:12:26.894Z,51.60
2023-03-02T03:14:54.385Z,60.35
2023-03-02T03:17:21.500Z,56.65
2023-03-02T03:20:05.995Z,50.15
2023-03-02T03:22:37.078Z,51.00
2023-03-02T03:25:04.922Z,59.72
2023-03-02T03:27:31.631Z,58.40
2023-03-02T03:29:58.477Z,52.25
2023-03-02T03:32:25.999Z,54.38
2023-03-02T03:34:54.747Z,57.20
2023-03-02T03:37:26.352Z,61.35
2023-03-02T03:39:53.336Z,53.47
2023-03-02T03:42:20.712Z,55.55
2023-03-02T03:44:47.568Z,56.88
2023-03-02T03:47:14.522Z,55.15
2023-03-02T03:49:41.355Z,62.53
2023-03-02T03:52:08.770Z,60.17
2023-03-02T03:54:35.720Z,61.20
2023-03-02T03:57:02.546Z,65.13
2023-03-02T03:59:29.133Z,67.97
2023-03-02T04:02:01.939Z,56.25
2023-03-02T04:04:36.030Z,60.30
2023-03-02T04:07:07.591Z,52.05
2023-03-02T04:09:38.017Z,55.90
2023-03-02T04:12:08.291Z,58.40
2023-03-02T04:14:35.607Z,50.67
2023-03-02T04:17:05.354Z,56.83
2023-03-02T04:19:33.408Z,54.20
2023-03-02T04:22:01.826Z,59.72
2023-03-02T04:24:28.667Z,56.95
2023-03-02T04:26:58.591Z,57.20
2023-03-02T04:29:25.566Z,64.13
2023-03-02T04:31:52.856Z,55.40
2023-03-02T04:34:21.281Z,54.85
2023-03-02T04:36:47.926Z,57.15
2023-03-02T04:39:17.328Z,56.97
2023-03-02T04:41:48.166Z,54.13
2023-03-02T04:44:16.128Z,56.00
2023-03-02T04:46:44.805Z,61.05
2023-03-02T04:49:13.194Z,51.60
2023-03-02T04:51:43.100Z,54.45
2023-03-02T04:54:25.336Z,50.60
2023-03-02T04:56:52.367Z,56.97
2023-03-02T04:59:22.600Z,53.08
2023-03-02T05:01:49.487Z,58.15
2023-03-02T05:04:16.563Z,57.25
2023-03-02T05:06:43.220Z,57.03
2023-03-02T05:09:10.202Z,61.33
2023-03-02T05:11:37.231Z,51.20
2023-03-02T05:14:06.959Z,58.38
2023-03-02T05:16:35.944Z,58.38
2023-03-02T05:19:04.822Z,57.05
2023-03-02T05:21:31.455Z,51.42
2023-03-02T05:23:58.384Z,49.25
2023-03-02T05:26:24.956Z,57.53
2023-03-02T05:28:53.884Z,52.50
2023-03-02T05:31:38.918Z,58.13
2023-03-02T05:34:07.704Z,60.25
2023-03-02T05:36:35.136Z,58.47
2023-03-02T05:39:02.026Z,54.65
2023-03-02T05:41:28.634Z,56.80
2023-03-02T05:43:55.177Z,66.63
2023-03-02T05:46:22.192Z,58.25
2023-03-02T05:48:49.127Z,63.97
2023-03-02T05:51:15.795Z,90.35
2023-03-02T05:53:42.392Z,62.28
2023-03-02T05:56:09.461Z,54.70
2023-03-02T05:58:36.088Z,54.83
2023-03-02T06:01:02.728Z,70.93
2023-03-02T06:03:29.449Z,67.47
2023-03-02T06:05:56.217Z,56.78
2023-03-02T06:08:23.064Z,57.60
2023-03-02T06:10:50.849Z,60.38
2023-03-02T06:13:17.773Z,60.20
2023-03-02T06:15:44.779Z,63.38
2023-03-02T06:18:12.546Z,67.40
2023-03-02T06:20:39.722Z,69.10
2023-03-02T06:23:06.521Z,61.67
2023-03-02T06:25:33.168Z,52.65
2023-03-02T06:27:59.699Z,58.90
2023-03-02T06:30:27.890Z,64.90
2023-03-02T06:32:54.744Z,56.95
2023-03-02T06:35:21.591Z,60.53
2023-03-02T06:37:48.265Z,60.95
2023-03-02T06:40:14.890Z,65.07
2023-03-02T06:42:42.471Z,50.20
2023-03-02T06:45:10.728Z,61.53
2023-03-02T06:47:37.277Z,61.47
2023-03-02T06:50:05.238Z,56.78
2023-03-02T06:52:31.790Z,54.85
2023-03-02T06:54:58.305Z,51.22
2023-03-02T06:57:24.876Z,59.78
2023-03-02T06:59:51.446Z,57.03
2023-03-02T07:02:18.020Z,60.97
2023-03-02T07:04:44.592Z,54.22
2023-03-02T07:07:11.180Z,56.42
2023-03-02T07:09:37.791Z,50.88
2023-03-02T07:12:04.425Z,57.75
2023-03-02T07:14:31.034Z,57.65
2023-03-02T07:16:57.774Z,46.25
2023-03-02T07:19:25.216Z,48.45
2023-03-02T07:21:51.718Z,42.05
2023-03-02T07:26:44.769Z,43.88
2023-03-02T07:29:11.286Z,53.15
2023-03-02T07:31:37.864Z,61.95
2023-03-02T07:34:04.547Z,50.67
2023-03-02T07:36:31.086Z,62.40
2023-03-02T07:38:57.707Z,55.30
2023-03-02T07:41:24.272Z,45.95
2023-03-02T07:43:50.813Z,55.15
2023-03-02T07:46:17.430Z,46.60
2023-03-02T07:48:44.187Z,60.83
2023-03-02T07:51:10.860Z,53.38
2023-03-02T07:53:37.528Z,57.88
2023-03-02T07:56:09.374Z,55.97
2023-03-02T07:58:36.506Z,60.78
2023-03-02T08:01:04.801Z,47.78
2023-03-02T08:03:31.547Z,52.75
2023-03-02T08:05:58.196Z,47.65
2023-03-02T08:08:24.825Z,52.40
2023-03-02T08:10:51.340Z,54.30
2023-03-02T08:13:17.947Z,49.08
2023-03-02T08:15:44.550Z,46.78
2023-03-02T08:18:11.156Z,46.47
2023-03-02T08:20:38.193Z,50.08
2023-03-02T08:23:04.843Z,44.85
2023-03-02T08:25:31.342Z,41.92
2023-03-02T08:30:24.328Z,48.30
2023-03-02T08:32:51.125Z,46.00
2023-03-02T08:35:17.675Z,45.55
2023-03-02T08:37:44.182Z,51.97
2023-03-02T08:40:11.415Z,43.85
2023-03-02T08:42:37.988Z,40.30
2023-03-02T08:45:05.118Z,56.55
2023-03-02T08:47:32.524Z,49.28
2023-03-02T08:49:59.044Z,43.38
2023-03-02T08:52:25.636Z,39.58
2023-03-02T08:54:52.344Z,41.08
2023-03-02T08:57:20.364Z,41.17
2023-03-02T08:59:47.733Z,57.50
2023-03-02T09:04:40.823Z,48.33
2023-03-02T09:07:07.332Z,43.40
2023-03-02T09:12:00.603Z,42.15
2023-03-02T09:14:27.636Z,38.80
2023-03-02T09:16:54.515Z,46.53
2023-03-02T09:19:21.411Z,38.97
2023-03-02T09:21:48.013Z,49.45
2023-03-02T09:24:14.557Z,45.67
2023-03-02T09:29:08.168Z,43.63
2023-03-02T09:31:36.591Z,30.35
2023-03-02T09:34:04.081Z,45.90
2023-03-02T09:36:32.599Z,39.30
2023-03-02T09:38:59.182Z,36.25
2023-03-02T09:41:41.304Z,34.75
2023-03-02T09:44:49.950Z,28.75
2023-03-02T09:50:25.330Z,29.20
2023-03-02T09:53:08.193Z,28.70
2023-03-02T09:55:36.853Z,36.20
2023-03-02T09:58:12.698Z,37.88
2023-03-02T10:00:42.448Z,32.03
2023-03-02T10:03:31.933Z,32.15
2023-03-02T10:05:58.834Z,22.98
2023-03-02T10:08:28.827Z,36.70
2023-03-02T10:11:25.070Z,24.02
2023-03-02T10:14:05.943Z,26.92
2023-03-02T10:16:41.431Z,36.80
2023-03-02T10:19:16.980Z,27.38
2023-03-02T10:21:47.463Z,25.30
2023-03-02T10:24:38.183Z,26.25
2023-03-02T10:27:26.176Z,26.55
2023-03-02T10:30:03.049Z,24.17
2023-03-02T10:32:32.885Z,32.67
2023-03-02T10:35:10.539Z,28.52
2023-03-02T10:37:37.109Z,34.78
2023-03-02T10:42:36.420Z,28.67
2023-03-02T10:45:18.976Z,28.35
2023-03-02T10:47:45.501Z,25.58
2023-03-02T10:52:59.759Z,23.58
2023-03-02T10:55:27.423Z,27.98
2023-03-02T10:58:07.094Z,22.17
2023-03-02T11:00:34.901Z,27.48
2023-03-02T11:03:06.136Z,28.25
2023-03-02T11:05:38.533Z,24.20
2023-03-02T11:08:10.106Z,36.80
2023-03-02T11:10:40.183Z,36.47
2023-03-02T11:13:43.476Z,25.75
2023-03-02T11:16:18.902Z,27.13
2023-03-02T11:18:52.372Z,34.28
2023-03-02T11:21:25.617Z,25.88
2023-03-02T11:24:02.209Z,26.00
2023-03-02T11:26:34.631Z,24.45
2023-03-02T11:29:11.272Z,22.17
2023-03-02T11:31:48.443Z,23.88
2023-03-02T11:35:04.594Z,23.13
2023-03-02T11:37:46.439Z,21.38
2023-03-02T11:40:22.785Z,27.02
2023-03-02T11:42:50.227Z,25.30
2023-03-02T11:45:22.173Z,25.85
2023-03-02T11:48:02.543Z,31.95
2023-03-02T11:50:30.862Z,31.00
2023-03-02T11:53:00.118Z,19.08
2023-03-02T11:55:29.457Z,25.98
2023-03-02T12:00:39.930Z,27.13
2023-03-02T12:03:15.341Z,22.00
2023-03-02T12:05:45.264Z,14.63
2023-03-02T12:08:20.750Z,18.98
2023-03-02T12:11:07.360Z,21.33
2023-03-02T12:13:36.931Z,22.83
2023-03-02T12:16:18.159Z,21.80
2023-03-02T12:18:47.690Z,20.02
2023-03-02T12:21:20.467Z,36.33
2023-03-02T12:23:46.858Z,18.15
2023-03-02T12:26:19.180Z,18.63
2023-03-02T12:29:10.874Z,19.50
2023-03-02T12:31:48.198Z,21.55
2023-03-02T12:34:27.973Z,22.27
2023-03-02T12:37:12.018Z,19.35
2023-03-02T12:39:53.461Z,25.38
2023-03-02T12:42:35.209Z,21.52
2023-03-02T12:45:33.300Z,17.70
2023-03-02T12:50:37.574Z,17.50
2023-03-02T12:53:06.520Z,16.00
2023-03-02T12:55:34.326Z,18.95
2023-03-02T12:58:02.102Z,27.23
2023-03-02T13:00:32.005Z,14.82
2023-03-02T13:03:01.986Z,20.98
2023-03-02T13:05:31.867Z,21.13
2023-03-02T13:08:04.625Z,23.20
2023-03-02T13:10:49.042Z,27.02
2023-03-02T13:13:24.865Z,22.50
2023-03-02T13:15:54.021Z,17.95
2023-03-02T13:18:26.195Z,22.10
2023-03-02T13:20:53.494Z,22.15
2023-03-02T13:23:20.827Z,29.48
2023-03-02T13:25:54.082Z,23.92
2023-03-02T13:28:30.771Z,31.33
2023-03-02T13:31:07.344Z,27.13
2023-03-02T13:33:40.987Z,19.67
2023-03-02T13:36:07.676Z,22.67
2023-03-02T13:38:37.759Z,21.20
2023-03-02T13:41:04.824Z,27.08
2023-03-02T13:43:37.512Z,23.73
2023-03-02T13:46:05.632Z,26.40
2023-03-02T13:48:32.844Z,23.98
2023-03-02T13:51:00.724Z,27.42
2023-03-02T13:53:30.131Z,28.52
2023-03-02T13:56:00.205Z,33.47
2023-03-02T13:58:29.256Z,27.58
2023-03-02T14:00:56.059Z,30.67
2023-03-02T14:03:28.744Z,34.10
2023-03-02T14:05:56.462Z,31.17
2023-03-02T14:08:23.101Z,41.58
2023-03-02T14:10:52.270Z,28.73
2023-03-02T14:13:25.317Z,35.33
2023-03-02T14:15:53.422Z,33.42
2023-03-02T14:18:39.677Z,32.72
2023-03-02T14:21:12.346Z,30.80
2023-03-02T14:23:41.152Z,35.03
2023-03-02T14:26:36.546Z,43.47
2023-03-02T14:29:27.236Z,33.97
2023-03-02T14:31:55.612Z,41.08
2023-03-02T14:34:22.397Z,28.23
2023-03-02T14:36:52.403Z,31.55
2023-03-02T14:39:21.793Z,25.65
2023-03-02T14:41:53.805Z,32.80
2023-03-02T14:44:21.593Z,32.63
2023-03-02T14:46:48.106Z,32.75
2023-03-02T14:51:43.279Z,30.85
2023-03-02T14:54:15.432Z,49.70
2023-03-02T14:56:43.338Z,41.83
2023-03-02T14:59:13.673Z,33.40
2023-03-02T15:01:40.805Z,36.80
2023-03-02T15:04:07.384Z,30.98
2023-03-02T15:09:06.492Z,30.08
2023-03-02T15:11:33.311Z,44.00
2023-03-02T15:13:59.983Z,32.42
2023-03-02T15:16:27.175Z,28.95
2023-03-02T15:21:22.531Z,24.50
2023-03-02T15:23:49.580Z,28.33
2023-03-02T15:26:16.522Z,28.65
2023-03-02T15:28:45.469Z,27.88
2023-03-02T15:31:15.137Z,32.45
2023-03-02T15:33:43.287Z,38.08
2023-03-02T15:36:10.097Z,37.08
2023-03-02T15:38:37.054Z,32.10
2023-03-02T15:41:05.766Z,35.88
2023-03-02T15:43:32.970Z,27.50
2023-03-02T15:46:00.812Z,26.75
2023-03-02T15:48:30.128Z,29.48
2023-03-02T15:51:02.127Z,33.97
2023-03-02T15:53:29.861Z,39.65
2023-03-02T15:55:56.848Z,34.90
2023-03-02T15:58:23.541Z,31.92
2023-03-02T16:00:50.924Z,42.00
2023-03-02T16:03:19.218Z,40.67
2023-03-02T16:05:46.037Z,32.47
2023-03-02T16:08:12.520Z,44.72
2023-03-02T16:13:10.332Z,35.72
2023-03-02T16:15:40.070Z,38.72
2023-03-02T16:18:07.807Z,26.85
2023-03-02T16:20:36.218Z,31.45
2023-03-02T16:23:06.072Z,31.30
2023-03-02T16:25:38.617Z,34.92
2023-03-02T16:28:06.606Z,42.05
2023-03-02T16:30:34.030Z,37.05
2023-03-02T16:33:03.251Z,26.08
2023-03-02T16:35:31.193Z,31.42
2023-03-02T16:37:57.776Z,36.03
2023-03-02T16:42:51.342Z,38.25
2023-03-02T16:45:19.197Z,36.35
2023-03-02T16:47:45.940Z,41.35
2023-03-02T16:50:14.761Z,29.40
2023-03-02T16:52:41.260Z,35.38
2023-03-02T16:57:37.656Z,33.33
2023-03-02T17:00:07.091Z,35.90
2023-03-02T17:02:33.643Z,37.22
2023-03-02T17:07:28.037Z,29.65
2023-03-02T17:12:20.900Z,39.75
2023-03-02T17:17:14.902Z,38.60
2023-03-02T17:19:41.330Z,38.13
2023-03-02T17:24:34.571Z,30.90
2023-03-02T17:27:04.231Z,42.75
2023-03-02T17:29:31.882Z,31.92
2023-03-02T17:34:28.547Z,42.17
2023-03-02T17:36:55.020Z,35.90
2023-03-02T17:41:48.004Z,42.65
2023-03-02T17:46:44.252Z,36.10
2023-03-02T17:49:11.384Z,35.90
2023-03-02T17:51:37.993Z,48.17
2023-03-02T17:54:04.798Z,69.78
2023-03-02T17:56:31.291Z,59.85
2023-03-02T18:01:27.686Z,46.88
2023-03-02T18:03:54.582Z,46.83
2023-03-02T18:06:21.247Z,41.50
2023-03-02T18:08:49.219Z,41.92
2023-03-02T18:11:18.463Z,39.95
2023-03-02T18:13:45.040Z,48.72
2023-03-02T18:18:38.236Z,44.90
2023-03-02T18:21:05.119Z,55.28
2023-03-02T18:23:32.113Z,47.83
2023-03-02T18:25:58.748Z,45.83
2023-03-02T18:28:26.175Z,41.05
2023-03-02T18:30:52.623Z,48.30
2023-03-02T18:35:45.795Z,50.75
2023-03-02T18:38:12.293Z,50.40
2023-03-02T18:43:05.251Z,50.58
2023-03-02T18:48:00.868Z,68.63
2023-03-02T18:50:29.023Z,48.42
2023-03-02T18:52:55.594Z,59.17
2023-03-02T18:55:24.437Z,58.28
2023-03-02T18:57:53.780Z,52.38
2023-03-02T19:00:26.596Z,51.45
2023-03-02T19:02:54.390Z,51.28
2023-03-02T19:05:21.319Z,54.65
2023-03-02T19:07:50.204Z,50.10
2023-03-02T19:10:17.313Z,47.30
2023-03-02T19:12:43.752Z,49.58
2023-03-02T19:17:39.720Z,45.35
2023-03-02T19:20:07.524Z,48.25
2023-03-02T19:22:34.537Z,49.00
2023-03-02T19:25:01.027Z,51.13
2023-03-02T19:27:28.205Z,54.00
2023-03-02T19:29:54.718Z,48.88
2023-03-02T19:34:47.981Z,56.50
2023-03-02T19:37:15.334Z,58.25
2023-03-02T19:39:42.270Z,51.75
2023-03-02T19:42:08.926Z,57.35
2023-03-02T19:44:35.728Z,53.28
2023-03-02T19:47:04.080Z,59.70
2023-03-02T19:49:30.535Z,67.10
2023-03-02T19:54:23.401Z,60.75
2023-03-02T19:59:24.257Z,62.38
2023-03-02T20:01:52.796Z,62.53
2023-03-02T20:04:20.020Z,57.72
2023-03-02T20:06:46.519Z,62.58
2023-03-02T20:11:40.977Z,57.17
2023-03-02T20:16:35.658Z,61.35
2023-03-02T20:19:03.637Z,58.42
2023-03-02T20:21:31.447Z,49.92
2023-03-02T20:23:58.428Z,49.30
2023-03-02T20:26:25.730Z,47.92
2023-03-02T20:28:55.523Z,48.45
2023-03-02T20:31:24.577Z,69.30
2023-03-02T20:33:54.210Z,60.38
2023-03-02T20:36:26.902Z,55.60
2023-03-02T20:39:06.992Z,50.22
2023-03-02T20:41:33.709Z,57.45
2023-03-02T20:44:00.267Z,53.63
2023-03-02T20:46:31.948Z,58.72
2023-03-02T20:48:59.400Z,53.28
2023-03-02T20:51:25.940Z,53.75
2023-03-02T20:56:20.647Z,53.30
2023-03-02T20:58:47.584Z,61.70
2023-03-02T21:01:16.318Z,49.97
2023-03-02T21:03:43.777Z,49.20
2023-03-02T21:06:11.360Z,47.42
2023-03-02T21:08:39.370Z,55.17
2023-03-02T21:11:10.617Z,53.63
2023-03-02T21:13:39.111Z,52.10
2023-03-02T21:16:07.263Z,45.63
2023-03-02T21:18:34.810Z,46.55
2023-03-02T21:21:02.699Z,52.35
2023-03-02T21:23:29.531Z,56.15
2023-03-02T21:25:56.357Z,46.78
2023-03-02T21:28:22.870Z,62.58
2023-03-02T21:33:16.454Z,50.63
2023-03-02T21:35:46.476Z,53.95
2023-03-02T21:38:13.049Z,54.75
2023-03-02T21:43:09.617Z,51.97
2023-03-02T21:45:36.936Z,40.63
2023-03-02T21:48:04.086Z,42.72
2023-03-02T21:50:34.131Z,48.10
2023-03-02T21:53:00.596Z,60.60
2023-03-02T22:00:25.537Z,53.55
2023-03-02T22:02:52.014Z,47.28
2023-03-02T22:07:46.176Z,54.17
2023-03-02T22:10:38.687Z,54.75
2023-03-02T22:13:23.749Z,55.78
2023-03-02T22:15:57.951Z,48.05
2023-03-02T22:18:27.047Z,60.30
2023-03-02T22:20:53.558Z,55.92
2023-03-02T22:23:26.230Z,58.10
2023-03-02T22:25:55.970Z,50.03
2023-03-02T22:28:26.063Z,49.40
2023-03-02T22:30:57.981Z,50.67
2023-03-02T22:33:27.761Z,53.10
2023-03-02T22:36:02.221Z,59.90
2023-03-02T22:38:30.558Z,54.58
2023-03-02T22:40:57.559Z,60.13
2023-03-02T22:43:31.085Z,59.00
2023-03-02T22:46:18.653Z,66.57
2023-03-02T22:51:23.826Z,66.30
2023-03-02T22:53:53.015Z,62.78
2023-03-02T22:56:37.241Z,59.47
2023-03-02T22:59:24.950Z,63.92
2023-03-02T23:17:38.839Z,50.58
2023-03-02T23:20:12.137Z,58.70
2023-03-02T23:22:39.247Z,49.70
2023-03-02T23:25:09.146Z,65.05
2023-03-02T23:27:35.837Z,62.85
2023-03-02T23:30:04.016Z,52.35
2023-03-02T23:32:30.660Z,64.35
2023-03-02T23:34:57.265Z,53.80
2023-03-02T23:37:23.834Z,57.30
2023-03-02T23:39:50.361Z,72.78
2023-03-02T23:44:43.323Z,63.05
2023-03-02T23:47:09.881Z,61.00
2023-03-02T23:52:03.627Z,56.85
2023-03-02T23:54:30.162Z,58.72
2023-03-02T23:59:23.510Z,51.30
